Time;durP1;ratioP1;P1;durP2;ratioP2;P2;SDS_P1;SDS_P2;PMS_P1;PMS_P2;Temp;Humidity;BMP_temperature;BMP_pressure;BME280_temperature;BME280_humidity;BME280_pressure;Samples;Min_cycle;Max_cycle;Signal;HPM_P1;HPM_P2
2023/03/12 00:01:58;;;;;;;0.60;0.60;;;1.60;99.90;;;;;;4428063;32;20072;-72
2023/03/12 00:04:24;;;;;;;0.47;0.47;;;1.60;99.90;;;;;;4430171;32;20077;-72
2023/03/12 00:06:49;;;;;;;0.52;0.52;;;1.60;99.90;;;;;;4431127;32;20110;-72
2023/03/12 00:09:15;;;;;;;1.05;0.75;;;1.60;99.90;;;;;;4431213;32;20301;-71
2023/03/12 00:11:40;;;;;;;0.50;0.50;;;1.60;99.90;;;;;;4430307;32;20128;-70
2023/03/12 00:14:06;;;;;;;0.40;0.40;;;1.60;99.90;;;;;;4430704;32;20105;-71
2023/03/12 00:16:31;;;;;;;0.52;0.52;;;1.50;99.90;;;;;;4431219;32;20549;-71
2023/03/12 00:18:57;;;;;;;0.50;0.50;;;1.50;99.90;;;;;;4429497;32;20081;-71
2023/03/12 00:21:23;;;;;;;5.87;0.88;;;1.50;99.90;;;;;;4430120;32;20093;-70
2023/03/12 00:23:49;;;;;;;2.05;1.40;;;1.50;99.90;;;;;;4430831;32;20120;-71
2023/03/12 00:26:15;;;;;;;0.60;0.60;;;1.60;99.90;;;;;;4429172;32;20098;-70
2023/03/12 00:28:41;;;;;;;0.40;0.40;;;1.60;99.90;;;;;;4432401;32;20504;-71
2023/03/12 00:31:17;;;;;;;0.40;0.40;;;1.60;99.90;;;;;;4430567;32;20074;-71
2023/03/12 00:33:42;;;;;;;3.45;2.15;;;1.60;99.90;;;;;;4432198;32;20081;-71
2023/03/12 00:36:09;;;;;;;0.50;0.50;;;1.60;99.90;;;;;;4431996;32;20501;-73
2023/03/12 00:38:38;;;;;;;0.40;0.40;;;1.50;99.90;;;;;;4430193;32;20077;-73
2023/03/12 00:41:03;;;;;;;0.50;0.50;;;1.50;99.90;;;;;;4430542;32;20295;-74
2023/03/12 00:43:29;;;;;;;0.50;0.50;;;1.50;99.90;;;;;;4431136;32;20911;-73
2023/03/12 00:45:54;;;;;;;0.50;0.50;;;1.50;99.90;;;;;;4431548;32;20529;-69
2023/03/12 00:48:20;;;;;;;0.50;0.50;;;1.60;99.90;;;;;;4433305;32;20135;-71
2023/03/12 00:50:46;;;;;;;0.40;0.40;;;1.50;99.90;;;;;;4434967;32;20093;-70
2023/03/12 00:53:11;;;;;;;1.05;1.02;;;1.60;99.90;;;;;;4433447;32;20576;-69
2023/03/12 00:55:37;;;;;;;0.40;0.40;;;1.60;99.90;;;;;;4431630;32;20069;-71
2023/03/12 00:58:03;;;;;;;0.40;0.40;;;1.60;99.90;;;;;;4430881;32;20085;-70
2023/03/12 01:00:30;;;;;;;0.55;0.55;;;1.60;99.90;;;;;;4430559;32;20519;-69
2023/03/12 01:02:56;;;;;;;0.55;0.55;;;1.60;99.90;;;;;;4431589;32;20121;-71
2023/03/12 01:05:21;;;;;;;0.45;0.45;;;1.50;99.90;;;;;;4431765;32;20061;-69
2023/03/12 01:07:47;;;;;;;0.40;0.40;;;1.50;99.90;;;;;;4430806;32;20096;-70
2023/03/12 01:10:15;;;;;;;19.58;2.65;;;1.60;99.90;;;;;;4433572;32;20076;-70
2023/03/12 01:12:41;;;;;;;0.57;0.57;;;1.60;99.90;;;;;;4433676;32;20513;-71
2023/03/12 01:15:08;;;;;;;0.82;0.82;;;1.70;99.90;;;;;;4432237;32;20081;-69
2023/03/12 01:17:34;;;;;;;0.73;0.73;;;1.80;99.90;;;;;;4436974;32;20069;-74
2023/03/12 01:19:59;;;;;;;0.50;0.50;;;1.90;99.90;;;;;;4431337;32;20140;-71
2023/03/12 01:22:25;;;;;;;0.40;0.40;;;1.90;99.90;;;;;;4429402;32;20058;-68
2023/03/12 01:24:50;;;;;;;0.47;0.47;;;1.90;99.90;;;;;;4432049;32;21169;-69
2023/03/12 01:27:16;;;;;;;0.50;0.50;;;1.90;99.90;;;;;;4430602;32;20127;-69
2023/03/12 01:29:41;;;;;;;0.40;0.40;;;1.90;99.90;;;;;;4433315;32;20515;-70
2023/03/12 01:32:07;;;;;;;0.70;0.68;;;1.90;99.90;;;;;;4430748;32;20549;-69
2023/03/12 01:34:34;;;;;;;0.50;0.50;;;1.90;99.90;;;;;;4434012;32;20140;-71
2023/03/12 01:37:00;;;;;;;0.60;0.60;;;1.90;99.90;;;;;;4431358;32;20068;-71
2023/03/12 01:39:25;;;;;;;0.50;0.50;;;1.90;99.90;;;;;;4432667;32;20532;-71
2023/03/12 01:41:51;;;;;;;0.50;0.50;;;1.80;99.90;;;;;;4430933;32;20552;-73
2023/03/12 01:44:16;;;;;;;0.47;0.47;;;1.80;99.90;;;;;;4431554;32;20097;-70
2023/03/12 01:46:43;;;;;;;1.15;1.08;;;1.80;99.90;;;;;;4431702;32;20406;-70
2023/03/12 01:49:20;;;;;;;8.30;2.53;;;1.80;99.90;;;;;;4431469;32;20547;-70
2023/03/12 01:52:02;;;;;;;0.60;0.60;;;1.80;99.90;;;;;;4432183;32;20166;-72
2023/03/12 01:54:41;;;;;;;0.40;0.40;;;1.80;99.90;;;;;;4416693;32;20462;-74
2023/03/12 01:57:12;;;;;;;0.50;0.50;;;1.70;99.90;;;;;;4410968;32;20073;-70
2023/03/12 01:59:41;;;;;;;;;;;1.70;99.90;;;;;;4431000;32;20084;-71
2023/03/12 02:02:07;;;;;;;0.40;0.40;;;1.70;99.90;;;;;;4429671;32;19973;-73
2023/03/12 02:04:33;;;;;;;0.52;0.52;;;1.70;99.90;;;;;;4431247;32;20062;-72
2023/03/12 02:07:15;;;;;;;0.75;0.75;;;1.70;99.90;;;;;;4431517;32;20090;-71
2023/03/12 02:09:44;;;;;;;0.60;0.60;;;1.70;99.90;;;;;;4431201;32;20195;-72
2023/03/12 02:12:10;;;;;;;0.40;0.40;;;1.70;99.90;;;;;;4431115;32;20084;-71
2023/03/12 02:14:36;;;;;;;0.40;0.40;;;1.70;99.90;;;;;;4429811;32;20609;-73
2023/03/12 02:17:03;;;;;;;1.65;1.35;;;1.80;99.90;;;;;;4428933;32;20065;-71
2023/03/12 02:19:57;;;;;;;0.40;0.40;;;1.80;99.90;;;;;;4430699;32;20065;-71
2023/03/12 02:22:23;;;;;;;0.40;0.40;;;1.80;99.90;;;;;;4422768;32;20097;-70
2023/03/12 02:24:57;;;;;;;1.83;1.70;;;1.90;99.90;;;;;;4430880;32;20073;-73
2023/03/12 02:27:22;;;;;;;0.40;0.40;;;2.00;99.90;;;;;;4431231;32;20394;-71
2023/03/12 02:29:49;;;;;;;0.43;0.43;;;2.00;99.90;;;;;;4431294;32;20112;-74
2023/03/12 02:32:24;;;;;;;0.40;0.40;;;2.00;99.90;;;;;;4431107;32;20263;-73
2023/03/12 02:34:50;;;;;;;0.43;0.43;;;1.90;99.90;;;;;;4431867;32;20057;-72
2023/03/12 02:37:17;;;;;;;0.40;0.40;;;2.00;99.90;;;;;;4430133;32;20089;-73
2023/03/12 02:39:45;;;;;;;0.65;0.65;;;2.00;99.90;;;;;;4432203;32;20115;-70
2023/03/12 02:42:11;;;;;;;0.40;0.40;;;2.00;99.90;;;;;;4430148;32;20065;-71
2023/03/12 02:44:36;;;;;;;0.45;0.45;;;2.00;99.90;;;;;;4430788;32;20432;-70
2023/03/12 02:47:03;;;;;;;0.40;0.40;;;2.00;99.90;;;;;;4430580;32;20064;-71
2023/03/12 02:49:31;;;;;;;0.40;0.40;;;1.90;99.90;;;;;;4430721;32;20536;-70
2023/03/12 02:51:58;;;;;;;0.40;0.40;;;1.90;99.90;;;;;;4430647;32;20089;-72
2023/03/12 02:54:25;;;;;;;0.50;0.50;;;1.90;99.90;;;;;;4431994;32;20061;-71
2023/03/12 02:56:51;;;;;;;1.37;0.77;;;2.00;99.90;;;;;;4432188;32;20061;-72
2023/03/12 02:59:20;;;;;;;0.50;0.50;;;2.00;99.90;;;;;;4430640;32;20103;-71
2023/03/12 03:01:53;;;;;;;0.45;0.45;;;2.00;99.90;;;;;;4430572;32;20109;-71
2023/03/12 03:04:18;;;;;;;0.40;0.40;;;1.90;99.90;;;;;;4430573;32;20147;-72
2023/03/12 03:06:46;;;;;;;0.40;0.40;;;1.90;99.90;;;;;;4429682;32;20057;-71
2023/03/12 03:09:11;;;;;;;0.32;0.32;;;2.00;99.90;;;;;;4428584;32;20076;-71
2023/03/12 03:11:37;;;;;;;0.45;0.45;;;2.00;99.90;;;;;;4431406;32;20073;-71
2023/03/12 03:14:03;;;;;;;0.40;0.40;;;1.90;99.90;;;;;;4429845;32;20109;-70
2023/03/12 03:16:29;;;;;;;0.40;0.40;;;1.90;99.90;;;;;;4432404;32;20522;-71
2023/03/12 03:18:54;;;;;;;0.60;0.60;;;1.80;99.90;;;;;;4429323;32;20157;-75
2023/03/12 03:21:21;;;;;;;0.45;0.45;;;1.80;99.90;;;;;;4431337;32;20890;-71
2023/03/12 03:23:48;;;;;;;0.50;0.50;;;1.70;99.90;;;;;;4429635;32;20081;-72
2023/03/12 03:26:15;;;;;;;0.50;0.50;;;1.70;99.90;;;;;;4430259;32;20073;-71
2023/03/12 03:28:40;;;;;;;0.82;0.82;;;1.70;99.90;;;;;;4429376;32;21400;-71
2023/03/12 03:31:08;;;;;;;0.52;0.52;;;1.60;99.90;;;;;;4427788;32;20061;-71
2023/03/12 03:33:36;;;;;;;0.47;0.47;;;1.60;99.90;;;;;;4431176;32;20113;-70
2023/03/12 03:36:03;;;;;;;12.75;1.85;;;1.50;99.90;;;;;;4431722;32;20508;-70
2023/03/12 03:38:29;;;;;;;0.52;0.52;;;1.60;99.90;;;;;;4429872;32;20144;-70
2023/03/12 03:40:55;;;;;;;0.98;0.77;;;1.50;99.90;;;;;;4430055;32;20093;-73
2023/03/12 03:43:21;;;;;;;0.60;0.60;;;1.50;99.90;;;;;;4428717;32;20089;-72
2023/03/12 03:45:47;;;;;;;0.50;0.50;;;1.50;99.90;;;;;;4431163;32;21311;-71
2023/03/12 03:48:13;;;;;;;2.83;1.27;;;1.50;99.90;;;;;;4429001;32;20297;-71
2023/03/12 03:50:39;;;;;;;0.50;0.50;;;1.40;99.90;;;;;;4429672;32;20065;-71
2023/03/12 03:53:07;;;;;;;0.40;0.40;;;1.40;99.90;;;;;;4429594;32;20503;-72
2023/03/12 03:55:37;;;;;;;0.45;0.45;;;1.40;99.90;;;;;;4427744;32;20090;-70
2023/03/12 03:58:03;;;;;;;1.65;0.80;;;1.40;99.90;;;;;;4432043;32;20085;-71
2023/03/12 04:00:30;;;;;;;0.47;0.47;;;1.30;99.90;;;;;;4428531;32;20077;-73
2023/03/12 04:02:56;;;;;;;0.40;0.40;;;1.40;99.90;;;;;;4428821;32;20143;-71
2023/03/12 04:05:22;;;;;;;0.57;0.57;;;1.30;99.90;;;;;;4431341;32;20097;-70
2023/03/12 04:07:47;;;;;;;0.62;0.62;;;1.40;99.90;;;;;;4432605;32;20094;-71
2023/03/12 04:10:13;;;;;;;0.40;0.40;;;1.30;99.90;;;;;;4430279;32;20064;-71
2023/03/12 04:12:38;;;;;;;0.40;0.40;;;1.20;99.90;;;;;;4431083;32;20080;-70
2023/03/12 04:15:04;;;;;;;0.85;0.85;;;1.20;99.90;;;;;;4430868;32;20141;-70
2023/03/12 04:17:30;;;;;;;0.47;0.47;;;1.20;99.90;;;;;;4432571;32;20112;-70
2023/03/12 04:19:56;;;;;;;0.40;0.40;;;1.20;99.90;;;;;;4432842;32;20089;-71
2023/03/12 04:22:21;;;;;;;0.50;0.50;;;1.20;99.90;;;;;;4432568;32;20450;-72
2023/03/12 04:24:47;;;;;;;0.40;0.40;;;1.20;99.90;;;;;;4433095;32;20470;-73
2023/03/12 04:27:12;;;;;;;0.50;0.50;;;1.10;99.90;;;;;;4432838;32;20066;-72
2023/03/12 04:29:39;;;;;;;0.60;0.60;;;1.10;99.90;;;;;;4434589;32;20547;-71
2023/03/12 04:32:05;;;;;;;0.47;0.47;;;1.10;99.90;;;;;;4431023;32;20069;-71
2023/03/12 04:34:30;;;;;;;1.60;1.05;;;1.20;99.90;;;;;;4429914;32;20529;-71
2023/03/12 04:36:56;;;;;;;0.40;0.40;;;1.10;99.90;;;;;;4431159;32;20077;-71
2023/03/12 04:39:21;;;;;;;0.90;0.60;;;1.10;99.90;;;;;;4432347;32;20369;-70
2023/03/12 04:41:47;;;;;;;0.68;0.68;;;1.10;99.90;;;;;;4430756;32;20073;-71
2023/03/12 04:44:14;;;;;;;0.50;0.50;;;1.00;99.90;;;;;;4422019;32;20106;-70
2023/03/12 04:46:39;;;;;;;0.40;0.40;;;1.00;99.90;;;;;;4418836;32;20073;-71
2023/03/12 04:49:05;;;;;;;0.40;0.40;;;1.00;99.90;;;;;;4419806;32;20084;-71
2023/03/12 04:51:31;;;;;;;0.40;0.40;;;1.00;99.90;;;;;;4419303;32;20162;-73
2023/03/12 04:53:57;;;;;;;0.40;0.40;;;1.00;99.90;;;;;;4416895;32;20501;-71
2023/03/12 04:56:22;;;;;;;0.40;0.40;;;1.00;99.90;;;;;;4420370;32;20124;-70
2023/03/12 04:58:48;;;;;;;0.70;0.70;;;1.00;99.90;;;;;;4416690;32;20080;-71
2023/03/12 05:01:35;;;;;;;0.40;0.40;;;1.00;99.90;;;;;;4416887;32;20123;-71
2023/03/12 05:04:01;;;;;;;0.40;0.40;;;1.00;99.90;;;;;;4418257;32;20057;-71
2023/03/12 05:06:27;;;;;;;0.32;0.32;;;1.00;99.90;;;;;;4416986;32;20069;-71
2023/03/12 05:08:52;;;;;;;0.98;0.90;;;1.00;99.90;;;;;;4419678;32;20073;-71
2023/03/12 05:11:18;;;;;;;0.47;0.47;;;0.90;99.90;;;;;;4418541;32;20120;-70
2023/03/12 05:13:44;;;;;;;0.35;0.35;;;0.90;99.90;;;;;;4420277;32;20147;-71
2023/03/12 05:16:10;;;;;;;0.50;0.50;;;0.90;99.90;;;;;;4420464;32;20081;-73
2023/03/12 05:18:36;;;;;;;0.50;0.50;;;0.80;99.90;;;;;;4418179;32;20098;-71
2023/03/12 05:21:06;;;;;;;0.60;0.60;;;0.80;99.90;;;;;;4416856;32;20088;-72
2023/03/12 05:23:32;;;;;;;0.50;0.50;;;0.80;99.90;;;;;;4419446;32;20209;-70
2023/03/12 05:25:58;;;;;;;0.40;0.40;;;0.80;99.90;;;;;;4420002;32;20073;-72
2023/03/12 05:28:27;;;;;;;0.50;0.50;;;0.70;99.90;;;;;;4417221;32;20082;-72
2023/03/12 05:30:55;;;;;;;0.40;0.40;;;0.70;99.90;;;;;;4418550;32;20136;-70
2023/03/12 05:33:21;;;;;;;2.20;1.45;;;0.80;99.90;;;;;;4419694;32;20069;-71
2023/03/12 05:35:46;;;;;;;0.40;0.40;;;0.70;99.90;;;;;;4419040;32;20088;-72
2023/03/12 05:38:11;;;;;;;0.50;0.50;;;0.80;99.90;;;;;;4419130;32;20090;-71
2023/03/12 05:40:37;;;;;;;0.50;0.50;;;0.80;99.90;;;;;;4420145;32;20144;-73
2023/03/12 05:43:03;;;;;;;5.62;1.20;;;0.80;99.90;;;;;;4422629;32;20097;-70
2023/03/12 05:45:28;;;;;;;0.70;0.70;;;0.80;99.90;;;;;;4432737;32;20421;-71
2023/03/12 05:47:54;;;;;;;0.47;0.47;;;0.80;99.90;;;;;;4431827;32;20064;-70
2023/03/12 05:50:19;;;;;;;0.40;0.40;;;0.80;99.90;;;;;;4431113;32;20113;-73
2023/03/12 05:52:45;;;;;;;0.50;0.50;;;0.80;99.90;;;;;;4433253;32;20074;-71
2023/03/12 05:55:11;;;;;;;0.40;0.40;;;0.80;99.90;;;;;;4432548;32;20073;-72
2023/03/12 05:57:37;;;;;;;0.40;0.40;;;0.70;99.90;;;;;;4431820;32;20081;-71
2023/03/12 06:00:03;;;;;;;0.40;0.40;;;0.70;99.90;;;;;;4431425;32;20073;-72
2023/03/12 06:02:29;;;;;;;0.43;0.43;;;0.70;99.90;;;;;;4431346;32;20114;-71
2023/03/12 06:04:57;;;;;;;0.40;0.40;;;0.80;99.90;;;;;;4431884;32;20084;-72
2023/03/12 06:07:22;;;;;;;0.88;0.88;;;0.80;99.90;;;;;;4429801;32;21419;-70
2023/03/12 06:09:48;;;;;;;0.62;0.62;;;0.80;99.90;;;;;;4432574;32;20108;-70
2023/03/12 06:12:13;;;;;;;0.82;0.82;;;0.90;99.90;;;;;;4429691;32;20500;-72
2023/03/12 06:14:39;;;;;;;0.40;0.40;;;0.90;99.90;;;;;;4431276;32;20107;-71
2023/03/12 06:17:04;;;;;;;0.50;0.50;;;0.90;99.90;;;;;;4433085;32;20082;-72
2023/03/12 06:19:30;;;;;;;0.50;0.50;;;1.00;99.90;;;;;;4432303;32;20544;-72
2023/03/12 06:21:55;;;;;;;0.40;0.40;;;1.00;99.90;;;;;;4430314;32;20065;-71
2023/03/12 06:24:21;;;;;;;0.70;0.70;;;1.00;99.90;;;;;;4431951;32;20180;-71
2023/03/12 06:26:46;;;;;;;0.30;0.30;;;1.00;99.90;;;;;;4430194;32;20102;-71
2023/03/12 06:29:12;;;;;;;0.40;0.40;;;1.00;99.90;;;;;;4433001;32;20131;-73
2023/03/12 06:31:38;;;;;;;0.70;0.70;;;1.00;99.90;;;;;;4430503;32;20068;-71
2023/03/12 06:34:04;;;;;;;0.40;0.40;;;1.10;99.90;;;;;;4430190;32;20061;-71
2023/03/12 06:36:29;;;;;;;0.75;0.75;;;1.10;99.90;;;;;;4433171;32;20057;-71
2023/03/12 06:38:55;;;;;;;0.45;0.45;;;1.10;99.90;;;;;;4428775;32;20086;-71
2023/03/12 06:41:20;;;;;;;0.50;0.50;;;1.10;99.90;;;;;;4430531;32;20061;-71
2023/03/12 06:43:46;;;;;;;0.43;0.43;;;1.10;99.90;;;;;;4432352;32;20097;-71
2023/03/12 06:46:15;;;;;;;0.43;0.43;;;1.20;99.90;;;;;;4429953;32;20098;-71
2023/03/12 06:48:41;;;;;;;0.40;0.40;;;1.20;99.90;;;;;;4429504;32;20078;-71
2023/03/12 06:51:08;;;;;;;0.50;0.50;;;1.30;99.90;;;;;;4430359;32;20497;-73
2023/03/12 06:53:34;;;;;;;0.40;0.40;;;1.30;99.90;;;;;;4433122;32;20127;-69
2023/03/12 06:56:00;;;;;;;0.85;0.85;;;1.40;99.90;;;;;;4433928;32;20520;-71
2023/03/12 06:58:26;;;;;;;0.60;0.60;;;1.40;99.90;;;;;;4430904;32;20077;-71
2023/03/12 07:00:52;;;;;;;2.42;1.33;;;1.40;99.90;;;;;;4429969;32;20492;-71
2023/03/12 07:03:18;;;;;;;0.50;0.50;;;1.40;99.90;;;;;;4428496;32;20085;-72
2023/03/12 07:05:44;;;;;;;0.43;0.43;;;1.40;99.90;;;;;;4432110;32;20077;-71
2023/03/12 07:08:11;;;;;;;0.45;0.45;;;1.50;99.90;;;;;;4431099;32;20126;-71
2023/03/12 07:10:36;;;;;;;0.50;0.50;;;1.50;99.90;;;;;;4427306;32;20192;-71
2023/03/12 07:13:02;;;;;;;0.40;0.40;;;1.60;99.90;;;;;;4431185;32;20104;-71
2023/03/12 07:15:27;;;;;;;0.95;0.90;;;1.60;99.90;;;;;;4430297;32;20414;-70
2023/03/12 07:17:53;;;;;;;0.40;0.40;;;1.60;99.90;;;;;;4431047;32;20080;-72
2023/03/12 07:20:19;;;;;;;0.50;0.50;;;1.70;99.90;;;;;;4436795;32;20171;-73
2023/03/12 07:22:44;;;;;;;0.40;0.40;;;1.70;99.90;;;;;;4434196;32;20622;-72
2023/03/12 07:25:11;;;;;;;0.65;0.65;;;1.70;99.90;;;;;;4433924;32;20077;-73
2023/03/12 07:27:36;;;;;;;0.40;0.40;;;1.90;99.90;;;;;;4432806;32;20081;-74
2023/03/12 07:30:02;;;;;;;0.40;0.40;;;1.90;99.90;;;;;;4433486;32;20077;-72
2023/03/12 07:32:28;;;;;;;0.43;0.43;;;2.10;99.90;;;;;;4432570;32;20143;-75
2023/03/12 07:34:53;;;;;;;0.40;0.40;;;2.10;99.90;;;;;;4432580;32;21417;-73
2023/03/12 07:37:19;;;;;;;0.40;0.40;;;2.10;99.90;;;;;;4433778;32;20057;-74
2023/03/12 07:39:46;;;;;;;0.50;0.50;;;2.10;99.90;;;;;;4433482;32;20081;-72
2023/03/12 07:42:11;;;;;;;0.40;0.40;;;2.10;99.90;;;;;;4434841;32;20553;-73
2023/03/12 07:44:37;;;;;;;0.60;0.60;;;2.30;99.90;;;;;;4434086;32;20122;-73
2023/03/12 07:47:03;;;;;;;0.40;0.40;;;2.30;99.90;;;;;;4434693;32;20053;-74
2023/03/12 07:49:28;;;;;;;0.40;0.37;;;2.20;99.90;;;;;;4435985;32;20433;-74
2023/03/12 07:51:54;;;;;;;0.40;0.40;;;2.30;99.90;;;;;;4433612;32;20131;-74
2023/03/12 07:54:19;;;;;;;1.00;0.68;;;2.40;99.90;;;;;;4434474;32;20085;-74
2023/03/12 07:56:45;;;;;;;0.40;0.40;;;2.50;99.90;;;;;;4433456;32;20061;-72
2023/03/12 07:59:10;;;;;;;15.25;1.35;;;2.50;99.90;;;;;;4431600;32;20437;-75
2023/03/12 08:01:36;;;;;;;0.40;0.40;;;2.60;99.90;;;;;;4431907;32;20579;-74
2023/03/12 08:04:01;;;;;;;0.47;0.47;;;2.60;99.90;;;;;;4433383;32;20081;-74
2023/03/12 08:06:28;;;;;;;1.25;0.98;;;2.70;99.90;;;;;;4434375;32;20094;-74
2023/03/12 08:08:54;;;;;;;0.98;0.93;;;2.80;99.90;;;;;;4435485;32;20068;-72
2023/03/12 08:11:20;;;;;;;0.40;0.40;;;2.90;99.90;;;;;;4436135;32;20086;-74
2023/03/12 08:13:45;;;;;;;0.40;0.40;;;3.00;99.90;;;;;;4432670;32;20077;-75
2023/03/12 08:16:11;;;;;;;5.68;1.33;;;3.00;99.90;;;;;;4434438;32;20094;-74
2023/03/12 08:18:37;;;;;;;0.40;0.40;;;3.20;99.90;;;;;;4433393;32;20523;-74
2023/03/12 08:21:02;;;;;;;0.50;0.50;;;3.40;99.90;;;;;;4433006;32;20107;-74
2023/03/12 08:23:28;;;;;;;0.52;0.52;;;3.50;99.90;;;;;;4432353;32;20066;-74
2023/03/12 08:25:54;;;;;;;0.40;0.40;;;3.70;99.90;;;;;;4433975;32;20135;-72
2023/03/12 08:28:21;;;;;;;0.40;0.40;;;3.80;99.90;;;;;;4434598;32;20093;-72
2023/03/12 08:30:49;;;;;;;1.33;1.23;;;3.60;99.90;;;;;;4433112;32;20065;-74
2023/03/12 08:33:15;;;;;;;0.40;0.40;;;3.70;99.90;;;;;;4428428;32;20071;-74
2023/03/12 08:35:41;;;;;;;0.40;0.40;;;3.90;99.90;;;;;;4433163;32;20105;-74
2023/03/12 08:38:06;;;;;;;0.40;0.40;;;4.10;99.90;;;;;;4433282;32;20540;-73
2023/03/12 08:40:32;;;;;;;0.65;0.65;;;4.20;99.90;;;;;;4430464;32;20123;-73
2023/03/12 08:42:58;;;;;;;2.08;1.20;;;4.30;99.90;;;;;;4432049;32;20120;-73
2023/03/12 08:45:23;;;;;;;0.37;0.37;;;4.30;99.90;;;;;;4434314;32;20086;-73
2023/03/12 08:47:49;;;;;;;0.40;0.40;;;4.20;99.90;;;;;;4431331;32;20073;-74
2023/03/12 08:50:16;;;;;;;0.57;0.57;;;4.20;99.90;;;;;;4429549;32;20061;-74
2023/03/12 08:52:43;;;;;;;1.30;1.20;;;4.30;99.90;;;;;;4427432;32;20161;-73
2023/03/12 08:55:10;;;;;;;0.50;0.50;;;4.50;99.90;;;;;;4429609;32;20139;-73
2023/03/12 08:57:35;;;;;;;0.30;0.30;;;4.50;99.90;;;;;;4430166;32;20541;-72
2023/03/12 09:00:04;;;;;;;0.40;0.40;;;4.60;99.90;;;;;;4432246;32;20097;-72
2023/03/12 09:02:30;;;;;;;0.57;0.57;;;4.80;99.90;;;;;;4430172;32;20116;-72
2023/03/12 09:04:55;;;;;;;0.40;0.40;;;4.90;99.90;;;;;;4434698;32;20160;-73
2023/03/12 09:07:21;;;;;;;0.30;0.30;;;5.00;99.90;;;;;;4436075;32;20665;-73
2023/03/12 09:09:47;;;;;;;0.52;0.52;;;5.00;99.90;;;;;;4433634;32;20076;-74
2023/03/12 09:12:12;;;;;;;0.50;0.50;;;4.90;99.90;;;;;;4434615;32;20053;-75
2023/03/12 09:14:38;;;;;;;0.40;0.40;;;5.10;99.90;;;;;;4438020;32;20643;-74
2023/03/12 09:17:04;;;;;;;0.40;0.40;;;5.20;99.90;;;;;;4432468;32;20552;-74
2023/03/12 09:19:30;;;;;;;0.50;0.50;;;5.50;99.90;;;;;;4434557;32;20057;-74
2023/03/12 09:21:56;;;;;;;0.95;0.65;;;5.60;99.90;;;;;;4432785;32;20090;-73
2023/03/12 09:24:22;;;;;;;0.55;0.55;;;5.60;99.90;;;;;;4432806;32;20077;-72
2023/03/12 09:26:47;;;;;;;0.40;0.40;;;5.60;99.90;;;;;;4432949;32;20074;-74
2023/03/12 09:29:13;;;;;;;0.40;0.40;;;5.60;99.90;;;;;;4433982;32;20072;-74
2023/03/12 09:31:38;;;;;;;0.60;0.60;;;5.70;99.90;;;;;;4431683;32;20146;-74
2023/03/12 09:34:04;;;;;;;2.45;1.05;;;5.40;99.90;;;;;;4436929;32;20089;-74
2023/03/12 09:36:30;;;;;;;0.35;0.35;;;5.10;99.90;;;;;;4432863;32;20088;-73
2023/03/12 09:38:56;;;;;;;1.05;0.93;;;5.10;99.90;;;;;;4434945;32;20088;-75
2023/03/12 09:41:26;;;;;;;0.60;0.60;;;5.40;99.90;;;;;;4433627;32;20107;-74
2023/03/12 09:44:15;;;;;;;0.40;0.40;;;5.80;99.90;;;;;;4423770;32;21688;-74
2023/03/12 09:46:49;;;;;;;0.50;0.50;;;6.00;99.90;;;;;;4421514;32;20089;-74
2023/03/12 09:49:25;;;;;;;0.50;0.50;;;6.10;99.90;;;;;;4422719;32;20621;-73
2023/03/12 09:51:54;;;;;;;0.40;0.40;;;6.30;99.90;;;;;;4422555;32;20081;-73
2023/03/12 09:54:29;;;;;;;0.30;0.30;;;6.50;99.90;;;;;;4423459;32;20068;-73
2023/03/12 09:56:59;;;;;;;0.30;0.30;;;6.70;99.90;;;;;;4423242;32;20090;-73
2023/03/12 09:59:24;;;;;;;0.50;0.50;;;6.50;99.90;;;;;;4423101;32;20089;-73
2023/03/12 10:01:56;;;;;;;0.32;0.32;;;6.50;99.90;;;;;;4421763;32;20140;-72
2023/03/12 10:04:42;;;;;;;1.95;0.60;;;6.70;99.90;;;;;;4421211;32;20120;-74
2023/03/12 10:07:20;;;;;;;0.30;0.30;;;6.90;99.90;;;;;;4423350;32;20089;-73
2023/03/12 10:10:06;;;;;;;0.30;0.30;;;6.80;99.90;;;;;;4422247;32;21657;-74
2023/03/12 10:13:01;;;;;;;0.30;0.30;;;6.70;99.90;;;;;;4421995;32;20082;-73
2023/03/12 10:15:56;;;;;;;0.37;0.37;;;6.70;99.90;;;;;;4420219;32;20206;-74
2023/03/12 10:18:34;;;;;;;0.52;0.52;;;6.90;99.90;;;;;;4419047;32;20202;-73
2023/03/12 10:21:26;;;;;;;0.30;0.30;;;7.10;99.90;;;;;;4422585;32;20086;-73
2023/03/12 10:24:21;;;;;;;1.27;0.65;;;7.30;99.90;;;;;;4420957;32;20478;-74
2023/03/12 10:26:50;;;;;;;0.30;0.30;;;7.30;99.90;;;;;;4423872;32;20088;-73
2023/03/12 10:29:29;;;;;;;0.30;0.30;;;7.10;99.90;;;;;;4422905;32;21512;-74
2023/03/12 10:32:06;;;;;;;1.65;0.75;;;7.30;99.90;;;;;;4421747;32;20086;-73
2023/03/12 10:34:57;;;;;;;0.32;0.32;;;7.50;99.90;;;;;;4426153;32;20584;-73
2023/03/12 10:37:25;;;;;;;6.83;2.63;;;7.30;99.90;;;;;;4421042;32;20069;-74
2023/03/12 10:39:54;;;;;;;0.30;0.30;;;6.80;99.90;;;;;;4424165;32;20170;-73
2023/03/12 10:42:22;;;;;;;0.40;0.40;;;6.90;99.90;;;;;;4422316;32;20540;-73
2023/03/12 10:44:53;;;;;;;0.40;0.40;;;7.40;99.90;;;;;;4429699;32;20260;-74
2023/03/12 10:47:33;;;;;;;0.75;0.75;;;7.30;99.90;;;;;;4432074;32;20139;-73
2023/03/12 10:50:13;;;;;;;0.40;0.40;;;7.20;99.90;;;;;;4431782;32;20433;-72
2023/03/12 10:52:38;;;;;;;3.03;0.50;;;7.20;99.90;;;;;;4432926;32;20070;-72
2023/03/12 10:55:12;;;;;;;0.30;0.30;;;7.40;99.90;;;;;;4434408;32;20068;-73
2023/03/12 10:57:39;;;;;;;0.40;0.40;;;7.70;99.90;;;;;;4433340;32;20321;-73
2023/03/12 11:00:10;;;;;;;0.30;0.30;;;7.90;99.90;;;;;;4432464;32;20110;-72
2023/03/12 11:02:42;;;;;;;0.47;0.47;;;7.90;99.90;;;;;;4432856;32;20502;-73
2023/03/12 11:05:21;;;;;;;0.95;0.77;;;7.70;99.90;;;;;;4431052;32;20085;-72
2023/03/12 11:07:47;;;;;;;0.60;0.60;;;8.00;99.90;;;;;;4422996;32;20089;-74
2023/03/12 11:10:34;;;;;;;2.22;0.70;;;8.10;99.90;;;;;;4435586;32;20133;-74
2023/03/12 11:13:04;;;;;;;0.40;0.40;;;8.20;99.90;;;;;;4423521;32;20062;-74
2023/03/12 11:15:39;;;;;;;3.83;1.25;;;8.30;99.90;;;;;;4434072;32;20527;-74
2023/03/12 11:18:25;;;;;;;0.30;0.30;;;8.30;99.90;;;;;;4433053;32;20139;-74
2023/03/12 11:20:55;;;;;;;0.30;0.30;;;8.30;99.90;;;;;;4437024;32;20077;-74
2023/03/12 11:23:24;;;;;;;0.60;0.57;;;7.80;99.90;;;;;;4431411;32;20068;-74
2023/03/12 11:25:54;;;;;;;0.65;0.35;;;7.80;99.90;;;;;;4431457;32;20181;-74
2023/03/12 11:28:23;;;;;;;0.30;0.30;;;7.90;99.90;;;;;;4432032;32;20701;-74
2023/03/12 11:30:52;;;;;;;0.37;0.37;;;8.10;99.90;;;;;;4431443;32;20082;-74
2023/03/12 11:33:17;;;;;;;0.68;0.40;;;8.10;99.90;;;;;;4430796;32;20100;-72
2023/03/12 11:35:51;;;;;;;1.25;0.70;;;7.80;99.90;;;;;;4430645;32;20081;-74
2023/03/12 11:38:20;;;;;;;1.05;0.73;;;7.70;99.90;;;;;;4429866;32;20151;-74
2023/03/12 11:41:25;;;;;;;0.40;0.40;;;7.90;99.90;;;;;;4431406;32;20427;-74
2023/03/12 11:44:18;;;;;;;0.50;0.50;;;7.60;99.90;;;;;;4410840;32;103062;-74
2023/03/12 11:47:15;;;;;;;0.30;0.30;;;7.90;99.90;;;;;;4422643;32;20093;-73
2023/03/12 11:49:52;;;;;;;0.30;0.30;;;7.80;99.90;;;;;;4423330;32;20674;-73
2023/03/12 11:52:30;;;;;;;0.43;0.43;;;7.50;99.90;;;;;;4432139;32;20106;-74
2023/03/12 11:55:05;;;;;;;0.30;0.30;;;7.30;99.90;;;;;;4431328;32;20089;-74
2023/03/12 11:57:58;;;;;;;1.58;1.48;;;7.20;99.90;;;;;;4433237;32;20816;-74
2023/03/12 12:00:56;;;;;;;0.88;0.88;;;7.30;99.90;;;;;;4422291;32;20097;-73
2023/03/12 12:03:38;;;;;;;0.40;0.40;;;7.60;99.90;;;;;;4423247;32;20070;-74
2023/03/12 12:06:26;;;;;;;0.40;0.40;;;7.70;99.90;;;;;;4430930;32;20081;-74
2023/03/12 12:09:17;;;;;;;0.40;0.40;;;7.80;99.90;;;;;;4429886;32;20576;-74
2023/03/12 12:11:54;;;;;;;0.43;0.43;;;8.00;99.40;;;;;;4421005;32;20365;-74
2023/03/12 12:14:33;;;;;;;0.50;0.50;;;8.00;98.90;;;;;;4431190;32;20172;-74
2023/03/12 12:17:24;;;;;;;0.30;0.30;;;7.80;98.40;;;;;;4433067;32;20100;-73
2023/03/12 12:20:20;;;;;;;2.70;1.30;;;7.90;96.90;;;;;;4421555;32;20604;-74
2023/03/12 12:23:12;;;;;;;1.67;0.62;;;7.80;95.80;;;;;;4423095;32;20093;-74
2023/03/12 12:25:52;;;;;;;0.50;0.50;;;7.70;95.40;;;;;;4424723;32;20143;-72
2023/03/12 12:28:55;;;;;;;9.23;1.73;;;7.80;95.10;;;;;;4433645;32;20490;-72
2023/03/12 12:31:34;;;;;;;21.73;0.73;;;7.70;94.70;;;;;;4427007;32;20528;-73
2023/03/12 12:34:23;;;;;;;0.50;0.50;;;7.10;94.30;;;;;;4433724;32;20057;-72
2023/03/12 12:36:55;;;;;;;0.47;0.47;;;7.10;95.40;;;;;;4434011;32;20136;-73
2023/03/12 12:39:41;;;;;;;0.50;0.50;;;7.30;96.30;;;;;;4435299;32;20097;-74
2023/03/12 12:42:15;;;;;;;0.30;0.30;;;7.50;95.70;;;;;;4433347;32;20077;-74
2023/03/12 12:44:46;;;;;;;0.37;0.37;;;7.70;94.20;;;;;;4432141;32;20085;-75
2023/03/12 12:47:17;;;;;;;0.40;0.40;;;7.40;93.90;;;;;;4433703;32;20069;-74
2023/03/12 12:49:47;;;;;;;0.40;0.40;;;7.40;93.90;;;;;;4432376;32;20828;-74
2023/03/12 12:52:18;;;;;;;0.40;0.40;;;7.40;95.10;;;;;;4432717;32;20101;-74
2023/03/12 12:55:05;;;;;;;0.35;0.35;;;7.40;95.50;;;;;;4435599;32;20085;-74
2023/03/12 12:57:55;;;;;;;8.48;3.33;;;7.40;96.20;;;;;;4423983;32;20069;-73
2023/03/12 13:00:33;;;;;;;0.30;0.30;;;7.60;95.10;;;;;;4423943;32;20183;-73
2023/03/12 13:02:59;;;;;;;0.82;0.50;;;7.70;95.80;;;;;;4434506;32;20280;-73
2023/03/12 13:05:39;;;;;;;0.62;0.62;;;7.90;96.40;;;;;;4433305;32;20123;-74
2023/03/12 13:08:07;;;;;;;0.52;0.52;;;7.70;96.00;;;;;;4432871;32;20081;-73
2023/03/12 13:10:35;;;;;;;0.30;0.30;;;7.70;96.30;;;;;;4430427;32;20148;-73